ENTK1: Smokey Hill River, Enterprise, KS

                                SHEF ID:       ENTK1     SMOKY HILL R AT ENTERPRISE, KS
STATION TYPE:

PRECIP STAGE RIV-FLOW BAT-LOAD
in ft cfs volt
Ccp-Rev Ccp-Rev Ccp-Rev Ccp-Rev
(America/Chicago)
08/26 00:00 ---- 6.21 209 12.46
08/26 01:00 ---- 6.21 209 12.44
08/26 02:00 ---- 6.21 209 12.42
08/26 03:00 ---- 6.20 207 12.40
08/26 04:00 ---- 6.19 205 12.36
08/26 05:00 ---- 6.21 209 12.32
08/26 06:00 ---- 6.22 211 12.28
08/26 07:00 ---- 6.23 213 12.26
08/26 08:00 ---- 6.21 209 12.27
08/26 09:00 ---- 6.21 209 12.27
08/26 10:00 ---- 6.23 213 12.96
08/26 11:00 ---- 6.23 213 13.30
08/26 12:00 ---- 6.25 217 13.32
08/26 13:00 ---- 6.25 217 13.18
08/26 14:00 ---- 6.24 215 13.17
08/26 15:00 ---- 6.27 222 13.19
08/26 16:00 ---- 6.23 213 13.19
08/26 17:00 ---- 6.26 220 13.16
08/26 18:00 ---- 6.27 222 13.15
08/26 19:00 ---- 6.27 222 12.98
08/26 20:00 ---- 6.25 217 12.60
08/26 21:00 ---- 6.27 222 12.53
08/26 22:00 ---- 6.26 220 12.51
08/26 23:00 ---- 6.27 222 12.49
Data processed at Wed 27Aug2025 04:48 GMT

Parsing this webpage?

Checkout our new Data API! CWMSDataAPI (CDA)

Timeseries IDs (TSIDs)

TSIDs used from left to right in the data table
EPKS.Precip-Inc.Total.1Hour.1Hour.Ccp-Rev
EPKS.Stage.Inst.1Hour.0.Ccp-Rev
EPKS.Flow.Inst.1Hour.0.Ccp-Rev
EPKS.Volt-Battery Load.Inst.1Hour.0.Ccp-Rev

                            

All information presented herein is the property of the government of the United States of America and may be revised or deleted at any time without prior notice. Dissemination of this information without the expressed written consent of the Public Affairs Office, Tulsa District U.S. Army Corps of Engineers is strictly prohibited. These data are gathered electronically and, as presented, have NOT undergone any form of quality control. These data are NOT guaranteed to be valid or correct.